createdAt,value
2024-03-08T00:00:28.189Z,45.95
2024-03-08T00:01:29.810Z,44.97
2024-03-08T00:02:31.434Z,47.30
2024-03-08T00:03:33.798Z,48.42
2024-03-08T00:04:35.340Z,43.97
2024-03-08T00:05:39.693Z,48.55
2024-03-08T00:06:41.764Z,49.72
2024-03-08T00:07:44.359Z,48.75
2024-03-08T00:08:46.072Z,46.92
2024-03-08T00:09:47.672Z,44.38
2024-03-08T00:10:49.331Z,46.22
2024-03-08T00:11:51.555Z,51.30
2024-03-08T00:12:54.646Z,47.30
2024-03-08T00:13:56.491Z,48.42
2024-03-08T00:14:58.225Z,47.33
2024-03-08T00:15:59.776Z,50.65
2024-03-08T00:17:01.391Z,53.90
2024-03-08T00:18:03.003Z,50.85
2024-03-08T00:19:04.628Z,48.33
2024-03-08T00:20:09.357Z,51.15
2024-03-08T00:21:11.446Z,49.40
2024-03-08T00:22:13.019Z,48.85
2024-03-08T00:23:14.575Z,48.20
2024-03-08T00:24:16.165Z,53.45
2024-03-08T00:25:17.803Z,49.53
2024-03-08T00:26:19.655Z,58.85
2024-03-08T00:27:22.268Z,47.47
2024-03-08T00:28:26.164Z,49.80
2024-03-08T00:29:28.716Z,46.65
2024-03-08T00:30:30.397Z,44.72
2024-03-08T00:31:35.113Z,43.22
2024-03-08T00:32:38.359Z,43.60
2024-03-08T00:33:41.051Z,46.15
2024-03-08T00:34:42.694Z,46.35
2024-03-08T00:35:44.340Z,49.78
2024-03-08T00:36:46.028Z,49.83
2024-03-08T00:37:50.367Z,44.38
2024-03-08T00:38:51.966Z,48.05
2024-03-08T00:39:54.216Z,46.22
2024-03-08T00:40:57.049Z,49.40
2024-03-08T00:41:58.649Z,46.90
2024-03-08T00:43:00.247Z,48.30
2024-03-08T00:44:01.839Z,52.13
2024-03-08T00:45:04.086Z,50.35
2024-03-08T00:46:05.827Z,55.47
2024-03-08T00:47:07.441Z,49.25
2024-03-08T00:48:09.529Z,54.60
2024-03-08T00:49:11.102Z,47.00
2024-03-08T00:50:14.142Z,52.50
2024-03-08T00:51:18.325Z,54.85
2024-03-08T00:52:20.386Z,54.80
2024-03-08T00:53:22.057Z,53.00
2024-03-08T00:54:23.599Z,54.25
2024-03-08T00:55:25.168Z,54.78
2024-03-08T00:56:26.752Z,55.05
2024-03-08T00:57:29.137Z,59.50
2024-03-08T00:58:31.748Z,60.10
2024-03-08T00:59:36.511Z,52.13
2024-03-08T01:00:39.971Z,54.65
2024-03-08T01:01:45.255Z,53.17
2024-03-08T01:02:46.888Z,52.85
2024-03-08T01:03:49.803Z,53.85
2024-03-08T01:04:51.518Z,52.78
2024-03-08T01:05:53.099Z,56.60
2024-03-08T01:06:54.656Z,66.78
2024-03-08T01:07:56.188Z,52.72
2024-03-08T01:08:57.818Z,58.63
2024-03-08T01:09:59.685Z,58.92
2024-03-08T01:11:01.315Z,56.88
2024-03-08T01:12:02.985Z,63.42
2024-03-08T01:13:04.808Z,59.83
2024-03-08T01:14:06.593Z,60.20
2024-03-08T01:15:08.603Z,59.10
2024-03-08T01:16:12.535Z,61.97
2024-03-08T01:17:15.502Z,59.35
2024-03-08T01:18:17.251Z,59.85
2024-03-08T01:19:19.005Z,67.60
2024-03-08T01:20:20.802Z,63.03
2024-03-08T01:21:23.464Z,65.32
2024-03-08T01:22:25.048Z,76.88
2024-03-08T01:23:26.823Z,68.90
2024-03-08T01:24:28.367Z,68.40
2024-03-08T01:25:29.964Z,62.42
2024-03-08T01:26:31.841Z,60.28
2024-03-08T01:27:33.609Z,62.85
2024-03-08T01:28:35.583Z,60.85
2024-03-08T01:29:37.214Z,65.05
2024-03-08T01:30:39.737Z,60.25
2024-03-08T01:31:41.305Z,59.83
2024-03-08T01:32:43.768Z,64.57
2024-03-08T01:33:45.438Z,63.42
2024-03-08T01:34:47.087Z,63.88
2024-03-08T01:35:49.098Z,72.57
2024-03-08T01:36:50.716Z,59.47
2024-03-08T01:37:52.256Z,66.13
2024-03-08T01:38:54.014Z,60.80
2024-03-08T01:39:55.580Z,62.42
2024-03-08T01:40:57.450Z,67.35
2024-03-08T01:41:59.570Z,63.47
2024-03-08T01:43:36.959Z,62.30
2024-03-08T01:44:38.531Z,66.85
2024-03-08T01:45:40.048Z,63.35
2024-03-08T01:46:41.622Z,62.20
2024-03-08T01:47:43.297Z,65.95
2024-03-08T01:48:45.609Z,56.55
2024-03-08T01:49:47.369Z,58.10
2024-03-08T01:50:49.070Z,60.78
2024-03-08T01:51:50.986Z,67.00
2024-03-08T01:52:53.485Z,62.58
2024-03-08T01:53:56.996Z,60.15
2024-03-08T01:55:02.060Z,58.28
2024-03-08T01:56:04.095Z,64.72
2024-03-08T01:57:05.920Z,62.08
2024-03-08T01:58:08.182Z,62.22
2024-03-08T01:59:10.176Z,66.03
2024-03-08T02:00:12.978Z,66.07
2024-03-08T02:01:17.940Z,63.42
2024-03-08T02:02:20.999Z,62.05
2024-03-08T02:03:23.552Z,57.30
2024-03-08T02:04:25.568Z,59.08
2024-03-08T02:05:27.391Z,66.13
2024-03-08T02:06:28.964Z,58.47
2024-03-08T02:07:30.483Z,56.63
2024-03-08T02:08:32.770Z,69.20
2024-03-08T02:09:34.419Z,72.45
2024-03-08T02:10:36.017Z,71.72
2024-03-08T02:11:38.296Z,76.68
2024-03-08T02:12:40.355Z,70.55
2024-03-08T02:13:42.385Z,65.00
2024-03-08T02:14:45.232Z,63.38
2024-03-08T02:16:01.451Z,65.28
2024-03-08T02:17:03.608Z,66.90
2024-03-08T02:18:05.806Z,67.55
2024-03-08T02:19:10.819Z,67.95
2024-03-08T02:20:14.639Z,67.60
2024-03-08T02:21:22.069Z,69.35
2024-03-08T02:22:23.755Z,68.55
2024-03-08T02:23:26.101Z,66.75
2024-03-08T02:24:27.722Z,73.25
2024-03-08T02:25:29.628Z,75.93
2024-03-08T02:26:31.236Z,71.18
2024-03-08T02:27:32.887Z,67.63
2024-03-08T02:28:35.200Z,73.07
2024-03-08T02:29:37.855Z,66.90
2024-03-08T02:30:39.945Z,70.15
2024-03-08T02:31:41.469Z,70.72
2024-03-08T02:32:43.108Z,69.50
2024-03-08T02:33:44.880Z,68.70
2024-03-08T02:34:46.503Z,69.45
2024-03-08T02:35:49.320Z,69.85
2024-03-08T02:36:50.878Z,81.63
2024-03-08T02:37:52.429Z,75.95
2024-03-08T02:38:54.017Z,75.28
2024-03-08T02:39:56.407Z,69.60
2024-03-08T02:40:58.016Z,68.55
2024-03-08T02:41:59.620Z,69.65
2024-03-08T02:43:01.244Z,65.18
2024-03-08T02:44:02.843Z,63.55
2024-03-08T02:45:06.835Z,67.78
2024-03-08T02:46:08.474Z,70.97
2024-03-08T02:47:10.089Z,76.78
2024-03-08T02:48:12.391Z,76.18
2024-03-08T02:49:13.994Z,72.95
2024-03-08T02:50:17.429Z,77.38
2024-03-08T02:51:19.198Z,64.93
2024-03-08T02:52:22.464Z,62.95
2024-03-08T02:53:25.821Z,61.33
2024-03-08T02:54:27.398Z,63.17
2024-03-08T02:55:29.044Z,65.07
2024-03-08T02:56:31.407Z,68.05
2024-03-08T02:57:33.266Z,63.95
2024-03-08T02:58:34.813Z,62.10
2024-03-08T02:59:36.421Z,64.80
2024-03-08T03:00:40.067Z,68.10
2024-03-08T03:01:42.427Z,61.67
2024-03-08T03:02:44.071Z,61.28
2024-03-08T03:03:45.661Z,64.47
2024-03-08T03:04:47.157Z,64.57
2024-03-08T03:05:49.598Z,67.85
2024-03-08T03:06:51.992Z,62.30
2024-03-08T03:07:53.582Z,62.08
2024-03-08T03:08:55.179Z,68.70
2024-03-08T03:09:56.943Z,63.67
2024-03-08T03:10:58.570Z,64.35
2024-03-08T03:12:00.690Z,66.15
2024-03-08T03:13:02.252Z,62.67
2024-03-08T03:14:03.786Z,68.53
2024-03-08T03:15:06.234Z,60.33
2024-03-08T03:16:08.464Z,63.15
2024-03-08T03:17:11.183Z,60.92
2024-03-08T03:18:13.049Z,65.10
2024-03-08T03:19:16.206Z,59.45
2024-03-08T03:20:27.176Z,62.00
2024-03-08T03:21:32.859Z,63.80
2024-03-08T03:22:35.950Z,63.90
2024-03-08T03:23:38.320Z,59.65
2024-03-08T03:24:41.191Z,69.90
2024-03-08T03:25:42.931Z,53.95
2024-03-08T03:26:44.949Z,58.92
2024-03-08T03:27:47.514Z,57.97
2024-03-08T03:28:49.397Z,50.90
2024-03-08T03:29:52.014Z,55.20
2024-03-08T03:30:54.167Z,54.83
2024-03-08T03:31:55.701Z,53.78
2024-03-08T03:33:00.116Z,66.88
2024-03-08T03:34:05.107Z,57.55
2024-03-08T03:35:07.041Z,49.88
2024-03-08T03:36:11.178Z,55.40
2024-03-08T03:37:13.723Z,53.88
2024-03-08T03:38:15.536Z,61.35
2024-03-08T03:39:17.865Z,62.42
2024-03-08T03:40:20.664Z,53.38
2024-03-08T03:41:22.234Z,64.28
2024-03-08T03:42:25.077Z,56.40
2024-03-08T03:43:27.088Z,55.50
2024-03-08T03:44:29.594Z,57.85
2024-03-08T03:45:36.450Z,57.38
2024-03-08T03:46:38.872Z,55.10
2024-03-08T03:47:40.454Z,53.33
2024-03-08T03:48:43.536Z,49.97
2024-03-08T03:49:46.174Z,48.47
2024-03-08T03:50:47.913Z,56.45
2024-03-08T03:51:49.478Z,59.05
2024-03-08T03:52:51.020Z,52.25
2024-03-08T03:53:53.882Z,54.35
2024-03-08T03:54:55.507Z,58.17
2024-03-08T03:55:57.805Z,49.90
2024-03-08T03:56:59.608Z,53.08
2024-03-08T03:58:02.381Z,59.85
2024-03-08T03:59:04.018Z,55.03
2024-03-08T04:00:07.469Z,49.05
2024-03-08T04:01:10.829Z,45.33
2024-03-08T04:02:12.373Z,45.50
2024-03-08T04:03:14.017Z,48.17
2024-03-08T04:04:15.599Z,44.67
2024-03-08T04:05:17.139Z,46.65
2024-03-08T04:06:18.733Z,49.22
2024-03-08T04:07:20.301Z,45.90
2024-03-08T04:08:22.008Z,44.67
2024-03-08T04:09:23.547Z,54.97
2024-03-08T04:10:25.375Z,55.97
2024-03-08T04:11:27.066Z,45.15
2024-03-08T04:12:30.328Z,47.50
2024-03-08T04:13:31.928Z,43.97
2024-03-08T04:14:34.168Z,49.28
2024-03-08T04:15:35.755Z,42.60
2024-03-08T04:16:38.332Z,47.60
2024-03-08T04:17:40.036Z,49.05
2024-03-08T04:18:41.916Z,54.03
2024-03-08T04:19:43.709Z,55.40
2024-03-08T04:20:45.326Z,47.25
2024-03-08T04:21:46.922Z,48.83
2024-03-08T04:22:50.577Z,47.97
2024-03-08T04:23:52.838Z,52.60
2024-03-08T04:24:54.415Z,52.10
2024-03-08T04:25:55.966Z,53.90
2024-03-08T04:26:57.867Z,61.95
2024-03-08T04:27:59.517Z,61.13
2024-03-08T04:29:01.066Z,63.97
2024-03-08T04:30:08.867Z,66.45
2024-03-08T04:31:11.791Z,61.50
2024-03-08T04:32:14.661Z,70.03
2024-03-08T04:33:17.697Z,65.18
2024-03-08T04:34:19.367Z,66.85
2024-03-08T04:35:21.942Z,68.32
2024-03-08T04:36:24.480Z,76.72
2024-03-08T04:37:26.456Z,68.15
2024-03-08T04:38:28.191Z,64.47
2024-03-08T04:39:30.071Z,64.95
2024-03-08T04:40:32.434Z,75.05
2024-03-08T04:41:35.322Z,72.60
2024-03-08T04:42:40.193Z,61.05
2024-03-08T04:43:41.746Z,72.75
2024-03-08T04:44:43.281Z,73.78
2024-03-08T04:45:45.145Z,78.82
2024-03-08T04:46:47.998Z,67.43
2024-03-08T04:47:49.779Z,74.28
2024-03-08T04:48:51.620Z,60.05
2024-03-08T04:49:54.323Z,64.93
2024-03-08T04:50:56.992Z,74.70
2024-03-08T04:51:58.635Z,67.75
2024-03-08T04:53:00.166Z,82.68
2024-03-08T04:54:01.804Z,67.53
2024-03-08T04:55:06.242Z,66.47
2024-03-08T04:56:08.375Z,77.63
2024-03-08T04:57:10.238Z,72.38
2024-03-08T04:58:11.803Z,67.10
2024-03-08T04:59:13.454Z,66.22
2024-03-08T05:00:16.252Z,70.32
2024-03-08T05:01:18.301Z,61.05
2024-03-08T05:02:19.829Z,68.07
2024-03-08T05:03:22.425Z,70.35
2024-03-08T05:04:23.935Z,70.82
2024-03-08T05:05:27.285Z,67.07
2024-03-08T05:06:30.065Z,57.90
2024-03-08T05:07:31.663Z,65.65
2024-03-08T05:08:34.234Z,62.70
2024-03-08T05:09:37.385Z,65.45
2024-03-08T05:10:39.016Z,59.72
2024-03-08T05:11:48.127Z,66.13
2024-03-08T05:12:50.498Z,64.38
2024-03-08T05:13:52.046Z,60.70
2024-03-08T05:14:53.608Z,60.65
2024-03-08T05:15:55.336Z,59.22
2024-03-08T05:16:57.128Z,62.53
2024-03-08T05:17:59.263Z,64.45
2024-03-08T05:19:01.048Z,63.97
2024-03-08T05:20:03.067Z,57.35
2024-03-08T05:21:05.263Z,59.83
2024-03-08T05:22:06.816Z,61.63
2024-03-08T05:23:09.434Z,65.35
2024-03-08T05:24:11.467Z,63.50
2024-03-08T05:25:13.443Z,62.60
2024-03-08T05:27:17.533Z,67.93
2024-03-08T05:28:19.081Z,62.60
2024-03-08T05:29:20.685Z,59.05
2024-03-08T05:30:23.022Z,61.92
2024-03-08T05:31:24.676Z,62.60
2024-03-08T05:32:27.280Z,62.88
2024-03-08T05:33:29.704Z,63.08
2024-03-08T05:34:31.494Z,57.22
2024-03-08T05:35:33.740Z,54.40
2024-03-08T05:36:36.067Z,53.78
2024-03-08T05:37:37.874Z,55.50
2024-03-08T05:38:39.459Z,55.67
2024-03-08T05:39:42.141Z,59.28
2024-03-08T05:40:44.514Z,57.35
2024-03-08T05:41:47.011Z,58.67
2024-03-08T05:42:48.594Z,57.78
2024-03-08T05:43:50.164Z,56.38
2024-03-08T05:44:51.733Z,54.17
2024-03-08T05:45:53.349Z,58.45
2024-03-08T05:46:54.916Z,62.53
2024-03-08T05:47:56.680Z,54.33
2024-03-08T05:48:59.979Z,55.45
2024-03-08T05:50:01.608Z,58.97
2024-03-08T05:51:03.347Z,56.05
2024-03-08T05:52:05.796Z,62.05
2024-03-08T05:53:07.755Z,59.38
2024-03-08T05:54:12.120Z,55.33
2024-03-08T05:55:15.564Z,51.65
2024-03-08T05:56:17.438Z,61.78
2024-03-08T05:57:19.321Z,56.90
2024-03-08T05:58:20.899Z,61.85
2024-03-08T05:59:24.560Z,60.40
2024-03-08T06:00:27.406Z,56.97
2024-03-08T06:01:29.714Z,58.03
2024-03-08T06:02:31.270Z,58.83
2024-03-08T06:03:32.839Z,57.10
2024-03-08T06:04:34.395Z,57.78
2024-03-08T06:05:36.015Z,58.90
2024-03-08T06:06:38.955Z,58.72
2024-03-08T06:07:41.765Z,55.53
2024-03-08T06:08:44.700Z,60.03
2024-03-08T06:09:49.311Z,64.30
2024-03-08T06:10:53.809Z,60.88
2024-03-08T06:11:56.211Z,64.38
2024-03-08T06:12:57.907Z,56.53
2024-03-08T06:14:01.393Z,60.40
2024-03-08T06:15:03.468Z,58.78
2024-03-08T06:16:05.801Z,64.78
2024-03-08T06:17:08.358Z,61.78
2024-03-08T06:18:13.066Z,64.47
2024-03-08T06:19:14.859Z,71.72
2024-03-08T06:20:16.651Z,60.80
2024-03-08T06:21:18.188Z,68.75
2024-03-08T06:22:21.004Z,55.17
2024-03-08T06:23:22.960Z,61.45
2024-03-08T06:24:24.637Z,60.97
2024-03-08T06:25:26.226Z,60.20
2024-03-08T06:26:31.559Z,56.70
2024-03-08T06:27:35.115Z,54.90
2024-03-08T06:28:36.813Z,66.85
2024-03-08T06:29:38.463Z,61.58
2024-03-08T06:30:40.049Z,65.45
2024-03-08T06:31:41.702Z,61.35
2024-03-08T06:32:44.548Z,61.13
2024-03-08T06:33:46.764Z,64.82
2024-03-08T06:34:48.375Z,70.07
2024-03-08T06:35:49.914Z,62.90
2024-03-08T06:36:53.624Z,60.75
2024-03-08T06:37:55.420Z,58.72
2024-03-08T06:38:58.195Z,66.95
2024-03-08T06:39:59.919Z,63.05
2024-03-08T06:41:04.205Z,59.13
2024-03-08T06:42:06.137Z,62.33
2024-03-08T06:43:08.061Z,59.35
2024-03-08T06:44:10.239Z,66.95
2024-03-08T06:45:13.621Z,56.40
2024-03-08T06:46:21.910Z,67.15
2024-03-08T06:47:26.875Z,61.05
2024-03-08T06:48:28.608Z,57.80
2024-03-08T06:49:30.673Z,69.53
2024-03-08T06:50:33.287Z,66.53
2024-03-08T06:51:34.877Z,62.28
2024-03-08T06:52:36.416Z,64.28
2024-03-08T06:53:39.946Z,59.40
2024-03-08T06:54:41.971Z,65.85
2024-03-08T06:55:43.688Z,64.00
2024-03-08T06:56:45.306Z,61.15
2024-03-08T06:57:46.915Z,56.45
2024-03-08T06:58:49.054Z,57.47
2024-03-08T06:59:50.706Z,71.65
2024-03-08T07:00:53.391Z,71.25
2024-03-08T07:01:55.454Z,72.22
2024-03-08T07:03:01.963Z,61.00
2024-03-08T07:04:06.415Z,61.40
2024-03-08T07:05:11.607Z,67.05
2024-03-08T07:06:13.758Z,55.92
2024-03-08T07:07:16.168Z,54.83
2024-03-08T07:08:17.878Z,56.17
2024-03-08T07:09:19.562Z,57.58
2024-03-08T07:10:27.177Z,58.67
2024-03-08T07:11:28.844Z,58.83
2024-03-08T07:12:30.483Z,56.95
2024-03-08T07:13:32.736Z,58.08
2024-03-08T07:14:34.356Z,57.53
2024-03-08T07:15:36.687Z,62.35
2024-03-08T07:16:38.224Z,57.55
2024-03-08T07:17:40.609Z,57.78
2024-03-08T07:18:44.730Z,61.28
2024-03-08T07:19:46.541Z,57.92
2024-03-08T07:20:48.181Z,63.10
2024-03-08T07:21:49.754Z,56.72
2024-03-08T07:22:54.126Z,53.92
2024-03-08T07:24:01.580Z,58.33
2024-03-08T07:25:21.007Z,54.28
2024-03-08T07:26:22.674Z,51.63
2024-03-08T07:27:24.461Z,62.40
2024-03-08T07:28:26.030Z,55.47
2024-03-08T07:29:27.608Z,56.80
2024-03-08T07:30:44.769Z,55.28
2024-03-08T07:31:52.199Z,54.95
2024-03-08T07:32:53.879Z,64.15
2024-03-08T07:33:55.536Z,56.17
2024-03-08T07:34:57.366Z,56.38
2024-03-08T07:35:59.040Z,60.72
2024-03-08T07:37:00.738Z,56.20
2024-03-08T07:38:03.663Z,59.28
2024-03-08T07:39:10.450Z,59.80
2024-03-08T07:40:14.915Z,54.85
2024-03-08T07:41:17.525Z,54.92
2024-03-08T07:42:19.108Z,60.75
2024-03-08T07:43:20.631Z,51.97
2024-03-08T07:44:22.245Z,54.33
2024-03-08T07:45:23.858Z,53.35
2024-03-08T07:46:25.412Z,55.83
2024-03-08T07:47:27.611Z,55.72
2024-03-08T07:48:29.530Z,56.50
2024-03-08T07:49:31.325Z,60.40
2024-03-08T07:50:34.384Z,53.45
2024-03-08T07:51:36.130Z,56.35
2024-03-08T07:52:38.058Z,60.08
2024-03-08T07:53:39.693Z,66.72
2024-03-08T07:54:41.312Z,60.17
2024-03-08T07:55:44.004Z,57.75
2024-03-08T07:56:45.869Z,62.85
2024-03-08T07:57:48.789Z,63.88
2024-03-08T07:58:50.380Z,62.25
2024-03-08T07:59:51.928Z,61.60
2024-03-08T08:00:53.498Z,64.90
2024-03-08T08:01:55.375Z,62.40
2024-03-08T08:02:57.090Z,59.05
2024-03-08T08:03:58.682Z,68.90
2024-03-08T08:05:00.522Z,62.92
2024-03-08T08:06:02.609Z,63.25
2024-03-08T08:07:04.402Z,60.13
2024-03-08T08:08:07.862Z,60.22
2024-03-08T08:09:29.189Z,56.47
2024-03-08T08:10:30.796Z,55.42
2024-03-08T08:11:33.709Z,67.10
2024-03-08T08:12:35.275Z,59.00
2024-03-08T08:13:37.660Z,55.70
2024-03-08T08:14:42.492Z,62.25
2024-03-08T08:15:44.076Z,53.13
2024-03-08T08:16:46.367Z,51.42
2024-03-08T08:17:52.981Z,54.78
2024-03-08T08:18:55.664Z,54.40
2024-03-08T08:19:57.261Z,55.88
2024-03-08T08:20:58.762Z,54.20
2024-03-08T08:22:00.338Z,59.80
2024-03-08T08:23:02.123Z,70.57
2024-03-08T08:24:07.474Z,59.38
2024-03-08T08:25:09.406Z,58.03
2024-03-08T08:26:12.399Z,65.55
2024-03-08T08:27:15.484Z,61.92
2024-03-08T08:28:20.151Z,55.30
2024-03-08T08:29:21.753Z,53.58
2024-03-08T08:30:23.631Z,54.90
2024-03-08T08:31:25.161Z,50.13
2024-03-08T08:32:27.677Z,53.85
2024-03-08T08:33:29.348Z,53.47
2024-03-08T08:34:31.379Z,55.05
2024-03-08T08:35:34.031Z,50.78
2024-03-08T08:36:36.343Z,53.33
2024-03-08T08:37:40.150Z,53.50
2024-03-08T08:38:45.189Z,52.42
2024-03-08T08:39:50.780Z,51.25
2024-03-08T08:40:53.683Z,47.67
2024-03-08T08:41:56.480Z,46.00
2024-03-08T08:43:01.169Z,46.75
2024-03-08T08:44:09.139Z,47.63
2024-03-08T08:45:23.188Z,45.53
2024-03-08T08:46:27.344Z,49.88
2024-03-08T08:47:29.444Z,46.60
2024-03-08T08:48:31.906Z,47.42
2024-03-08T08:49:33.522Z,49.40
2024-03-08T08:50:35.487Z,46.22
2024-03-08T08:51:37.834Z,46.33
2024-03-08T08:52:40.924Z,44.42
2024-03-08T08:53:48.772Z,43.65
2024-03-08T08:54:51.033Z,42.15
2024-03-08T08:55:54.412Z,47.25
2024-03-08T08:56:56.112Z,46.60
2024-03-08T08:57:58.104Z,44.25
2024-03-08T08:58:59.780Z,42.92
2024-03-08T09:00:01.648Z,48.60
2024-03-08T09:01:03.346Z,47.63
2024-03-08T09:02:05.108Z,51.00
2024-03-08T09:03:08.151Z,48.05
2024-03-08T09:04:09.737Z,48.17
2024-03-08T09:05:12.863Z,51.47
2024-03-08T09:06:14.844Z,45.97
2024-03-08T09:07:17.475Z,46.10
2024-03-08T09:08:19.231Z,45.25
2024-03-08T09:09:20.933Z,46.35
2024-03-08T09:10:22.831Z,45.85
2024-03-08T09:11:26.422Z,39.75
2024-03-08T09:12:28.133Z,41.80
2024-03-08T09:13:31.942Z,44.80
2024-03-08T09:14:35.725Z,40.17
2024-03-08T09:15:37.406Z,39.30
2024-03-08T09:16:39.114Z,42.58
2024-03-08T09:17:41.855Z,38.63
2024-03-08T09:18:44.157Z,42.90
2024-03-08T09:19:46.057Z,42.85
2024-03-08T09:20:48.243Z,45.70
2024-03-08T09:21:49.806Z,38.05
2024-03-08T09:22:51.450Z,41.75
2024-03-08T09:23:53.033Z,39.17
2024-03-08T09:24:54.536Z,39.80
2024-03-08T09:25:56.199Z,37.72
2024-03-08T09:26:59.772Z,39.17
2024-03-08T09:28:01.350Z,36.72
2024-03-08T09:29:02.935Z,39.22
2024-03-08T09:30:05.415Z,34.40
2024-03-08T09:31:07.001Z,35.40
2024-03-08T09:32:08.974Z,34.38
2024-03-08T09:33:10.951Z,33.38
2024-03-08T09:34:17.413Z,34.25
2024-03-08T09:35:22.070Z,36.72
2024-03-08T09:36:23.679Z,38.45
2024-03-08T09:37:25.228Z,37.50
2024-03-08T09:38:26.805Z,38.30
2024-03-08T09:39:30.045Z,35.50
2024-03-08T09:40:33.570Z,37.10
2024-03-08T09:41:35.257Z,37.42
2024-03-08T09:42:39.668Z,36.60
2024-03-08T09:43:41.557Z,43.08
2024-03-08T09:44:47.247Z,38.97
2024-03-08T09:45:50.815Z,38.10
2024-03-08T09:46:54.221Z,35.78
2024-03-08T09:47:56.096Z,32.75
2024-03-08T09:48:58.092Z,31.58
2024-03-08T09:49:59.789Z,35.22
2024-03-08T09:51:01.945Z,33.85
2024-03-08T09:52:06.117Z,33.67
2024-03-08T09:53:11.246Z,33.22
2024-03-08T09:54:23.201Z,33.40
2024-03-08T09:55:27.104Z,37.55
2024-03-08T09:56:29.023Z,31.23
2024-03-08T09:57:30.689Z,32.38
2024-03-08T09:58:43.634Z,32.03
2024-03-08T09:59:48.208Z,27.42
2024-03-08T10:00:49.786Z,32.22
2024-03-08T10:01:53.198Z,31.30
2024-03-08T10:02:55.261Z,28.92
2024-03-08T10:03:58.526Z,30.60
2024-03-08T10:05:00.127Z,31.88
2024-03-08T10:06:01.835Z,31.27
2024-03-08T10:07:03.491Z,31.40
2024-03-08T10:08:07.799Z,29.08
2024-03-08T10:09:11.600Z,31.35
2024-03-08T10:10:13.600Z,27.30
2024-03-08T10:11:15.337Z,24.85
2024-03-08T10:12:18.296Z,26.95
2024-03-08T10:13:21.034Z,27.75
2024-03-08T10:14:22.848Z,31.55
2024-03-08T10:15:31.021Z,27.08
2024-03-08T10:16:32.677Z,27.55
2024-03-08T10:17:36.375Z,27.77
2024-03-08T10:18:38.198Z,25.13
2024-03-08T10:19:40.327Z,24.83
2024-03-08T10:20:42.228Z,24.38
2024-03-08T10:21:55.066Z,24.77
2024-03-08T10:23:03.094Z,25.35
2024-03-08T10:24:11.996Z,25.17
2024-03-08T10:25:14.653Z,24.25
2024-03-08T10:26:19.158Z,24.55
2024-03-08T10:27:20.733Z,25.52
2024-03-08T10:28:23.665Z,23.48
2024-03-08T10:29:25.457Z,21.55
2024-03-08T10:30:26.999Z,25.33
2024-03-08T10:31:28.700Z,24.63
2024-03-08T10:32:30.265Z,24.35
2024-03-08T10:33:31.879Z,22.52
2024-03-08T10:34:33.423Z,22.80
2024-03-08T10:35:35.365Z,23.02
2024-03-08T10:36:39.106Z,21.83
2024-03-08T10:37:48.822Z,21.58
2024-03-08T10:38:54.582Z,20.52
2024-03-08T10:40:12.254Z,21.45
2024-03-08T10:41:14.821Z,22.88
2024-03-08T10:42:20.495Z,22.42
2024-03-08T10:43:28.546Z,26.02
2024-03-08T10:44:30.505Z,22.10
2024-03-08T10:45:39.235Z,21.25
2024-03-08T10:46:49.971Z,19.20
2024-03-08T10:48:00.685Z,21.50
2024-03-08T10:49:09.052Z,20.45
2024-03-08T10:50:23.448Z,22.65
2024-03-08T10:51:26.881Z,19.10
2024-03-08T10:52:28.609Z,23.67
2024-03-08T10:53:30.709Z,21.63
2024-03-08T10:54:33.672Z,24.05
2024-03-08T10:55:40.641Z,23.10
2024-03-08T10:56:42.297Z,22.45
2024-03-08T10:57:44.283Z,20.38
2024-03-08T10:58:47.261Z,19.90
2024-03-08T10:59:51.163Z,18.52
2024-03-08T11:00:54.946Z,20.63
2024-03-08T11:01:56.743Z,19.80
2024-03-08T11:02:58.408Z,21.75
2024-03-08T11:03:59.960Z,21.65
2024-03-08T11:05:05.016Z,19.58
2024-03-08T11:06:10.605Z,21.70
2024-03-08T11:07:18.432Z,22.63
2024-03-08T11:08:20.376Z,22.10
2024-03-08T11:09:36.693Z,18.98
2024-03-08T11:10:57.148Z,17.13
2024-03-08T11:12:21.881Z,18.85
2024-03-08T11:13:46.893Z,19.58
2024-03-08T11:14:53.203Z,18.98
2024-03-08T11:15:55.209Z,17.92
2024-03-08T11:16:56.865Z,18.23
2024-03-08T11:18:01.484Z,19.02
2024-03-08T11:19:27.154Z,19.45
2024-03-08T11:20:29.122Z,24.73
2024-03-08T11:21:32.570Z,15.82
2024-03-08T11:22:35.179Z,17.83
2024-03-08T11:23:36.862Z,17.58
2024-03-08T11:24:41.322Z,15.90
2024-03-08T11:25:45.539Z,16.33
2024-03-08T11:26:47.874Z,16.25
2024-03-08T11:28:07.025Z,13.27
2024-03-08T11:29:36.373Z,18.80
2024-03-08T11:30:39.698Z,16.42
2024-03-08T11:31:42.273Z,15.32
2024-03-08T11:32:49.922Z,18.52
2024-03-08T11:33:53.227Z,20.40
2024-03-08T11:34:55.079Z,19.00
2024-03-08T11:36:26.969Z,19.90
2024-03-08T11:37:31.395Z,19.27
2024-03-08T11:38:34.445Z,17.48
2024-03-08T11:39:38.249Z,16.60
2024-03-08T11:40:41.154Z,16.05
2024-03-08T11:41:46.474Z,16.15
2024-03-08T11:42:49.632Z,14.48
2024-03-08T11:44:06.248Z,17.38
2024-03-08T11:45:12.539Z,15.75
2024-03-08T11:46:19.023Z,17.88
2024-03-08T11:47:21.880Z,18.50
2024-03-08T11:48:24.379Z,21.60
2024-03-08T11:49:26.592Z,21.02
2024-03-08T11:50:28.647Z,14.75
2024-03-08T11:51:31.279Z,19.00
2024-03-08T11:52:32.877Z,19.60
2024-03-08T11:53:34.564Z,16.15
2024-03-08T11:54:37.304Z,14.02
2024-03-08T11:55:39.192Z,14.00
2024-03-08T11:56:42.760Z,15.52
2024-03-08T11:57:44.904Z,16.55
2024-03-08T11:58:55.557Z,16.75
2024-03-08T11:59:58.273Z,16.13
2024-03-08T12:01:07.115Z,15.30
2024-03-08T12:02:12.208Z,17.80
2024-03-08T12:03:14.075Z,16.48
2024-03-08T12:04:15.737Z,15.10
2024-03-08T12:05:17.659Z,16.73
2024-03-08T12:06:19.395Z,15.48
2024-03-08T12:07:21.103Z,14.32
2024-03-08T12:08:22.648Z,17.30
2024-03-08T12:09:24.259Z,16.13
2024-03-08T12:10:26.298Z,13.25
2024-03-08T12:11:29.927Z,15.23
2024-03-08T12:12:33.823Z,11.75
2024-03-08T12:13:36.037Z,10.52
2024-03-08T12:14:38.252Z,13.45
2024-03-08T12:15:40.675Z,12.30
2024-03-08T12:16:43.841Z,11.40
2024-03-08T12:17:49.316Z,12.07
2024-03-08T12:18:53.182Z,13.20
2024-03-08T12:19:55.841Z,15.57
2024-03-08T12:21:11.807Z,16.42
2024-03-08T12:22:16.579Z,16.95
2024-03-08T12:23:18.331Z,17.38
2024-03-08T12:24:20.466Z,16.02
2024-03-08T12:25:22.134Z,11.77
2024-03-08T12:26:27.326Z,16.17
2024-03-08T12:27:29.872Z,11.57
2024-03-08T12:28:31.634Z,11.75
2024-03-08T12:29:33.157Z,11.45
2024-03-08T12:30:34.873Z,10.82
2024-03-08T12:31:37.299Z,12.38
2024-03-08T12:32:39.926Z,12.20
2024-03-08T12:33:57.700Z,11.32
2024-03-08T12:34:59.663Z,11.60
2024-03-08T12:36:01.240Z,11.30
2024-03-08T12:37:02.888Z,11.93
2024-03-08T12:38:09.430Z,12.60
2024-03-08T12:39:13.550Z,11.52
2024-03-08T12:40:17.894Z,12.80
2024-03-08T12:41:20.531Z,12.07
2024-03-08T12:42:24.161Z,11.23
2024-03-08T12:43:25.776Z,11.07
2024-03-08T12:44:29.415Z,12.07
2024-03-08T12:45:31.052Z,21.70
2024-03-08T12:46:33.752Z,17.38
2024-03-08T12:47:35.388Z,25.73
2024-03-08T12:48:37.968Z,12.20
2024-03-08T12:49:40.315Z,10.68
2024-03-08T12:50:45.017Z,14.35
2024-03-08T12:51:46.564Z,21.38
2024-03-08T12:52:50.979Z,9.20
2024-03-08T12:53:56.954Z,10.70
2024-03-08T12:54:58.757Z,10.65
2024-03-08T12:56:00.412Z,10.90
2024-03-08T12:57:02.040Z,9.38
2024-03-08T12:58:04.524Z,11.98
2024-03-08T12:59:07.022Z,11.10
2024-03-08T13:00:14.189Z,10.68
2024-03-08T13:01:16.408Z,12.25
2024-03-08T13:02:18.167Z,12.32
2024-03-08T13:03:19.744Z,33.60
2024-03-08T13:04:22.682Z,19.60
2024-03-08T13:05:24.501Z,10.52
2024-03-08T13:06:26.165Z,9.40
2024-03-08T13:07:27.906Z,9.38
2024-03-08T13:08:30.861Z,12.70
2024-03-08T13:09:32.900Z,13.40
2024-03-08T13:10:34.491Z,11.90
2024-03-08T13:11:38.003Z,9.85
2024-03-08T13:12:39.945Z,21.45
2024-03-08T13:13:42.121Z,14.05
2024-03-08T13:14:43.728Z,13.35
2024-03-08T13:15:45.310Z,11.10
2024-03-08T13:16:50.100Z,13.75
2024-03-08T13:17:52.020Z,10.13
2024-03-08T13:18:54.745Z,9.25
2024-03-08T13:19:58.794Z,14.18
2024-03-08T13:21:00.553Z,11.07
2024-03-08T13:22:05.552Z,11.43
2024-03-08T13:23:09.652Z,9.13
2024-03-08T13:24:11.236Z,9.95
2024-03-08T13:25:14.387Z,10.43
2024-03-08T13:26:16.868Z,11.20
2024-03-08T13:27:21.221Z,9.93
2024-03-08T13:28:29.048Z,10.40
2024-03-08T13:29:31.218Z,9.52
2024-03-08T13:30:32.924Z,8.75
2024-03-08T13:31:37.503Z,12.65
2024-03-08T13:32:40.674Z,13.05
2024-03-08T13:33:43.390Z,9.32
2024-03-08T13:34:48.672Z,8.73